Time;durP1;ratioP1;P1;durP2;ratioP2;P2;SDS_P1;SDS_P2;PMS_P1;PMS_P2;Temp;Humidity;BMP_temperature;BMP_pressure;BME280_temperature;BME280_humidity;BME280_pressure;Samples;Min_cycle;Max_cycle;Signal;HPM_P1;HPM_P2
2021/04/24 00:02:03;;;;;;;1.2;1;;;;;;;4.58;69.9707;944.675;;;;
2021/04/24 00:04:53;;;;;;;1.8;1;;;;;;;4.76;69.13477;944.6735;;;;
2021/04/24 00:07:27;;;;;;;1.7;0.8;;;;;;;4.94;68.49902;944.6827;;;;
2021/04/24 00:09:45;;;;;;;2.4;0.7;;;;;;;4.92;67.99902;944.6343;;;;
2021/04/24 00:12:14;;;;;;;1.1;1;;;;;;;4.76;68.24414;944.6041;;;;
2021/04/24 00:14:45;;;;;;;0.7;0.7;;;;;;;4.58;68.82422;944.5119;;;;
2021/04/24 00:17:28;;;;;;;0.8;0.8;;;;;;;4.35;69.5498;944.5592;;;;
2021/04/24 00:19:53;;;;;;;2.4;1.3;;;;;;;4.13;70.49414;944.5797;;;;
2021/04/24 00:22:19;;;;;;;1.1;1;;;;;;;4.18;70.55957;944.5961;;;;
2021/04/24 00:24:44;;;;;;;3.4;1.2;;;;;;;4.21;70.24902;944.5731;;;;
2021/04/24 00:27:12;;;;;;;2.2;1;;;;;;;4.36;69.53125;944.5472;;;;
2021/04/24 00:29:37;;;;;;;1.8;1.1;;;;;;;4.48;69.17773;944.5342;;;;
2021/04/24 00:32:03;;;;;;;1.5;1.1;;;;;;;4.48;69.08887;944.5385;;;;
2021/04/24 00:34:28;;;;;;;2.6;1;;;;;;;4.35;69.49512;944.475;;;;
2021/04/24 00:36:55;;;;;;;4.9;1.3;;;;;;;4.41;69.42773;944.4543;;;;
2021/04/24 00:39:20;;;;;;;1.8;1.1;;;;;;;4.52;69.23047;944.4146;;;;
2021/04/24 00:41:46;;;;;;;1.1;0.9;;;;;;;4.5;69.08105;944.2609;;;;
2021/04/24 00:44:12;;;;;;;2.2;1.1;;;;;;;4.36;69.53027;944.3358;;;;
2021/04/24 00:46:38;;;;;;;4.8;1.2;;;;;;;4.18;70.38965;944.3175;;;;
2021/04/24 00:49:03;;;;;;;1.1;0.8;;;;;;;4;71.21387;944.2488;;;;
2021/04/24 00:51:28;;;;;;;1.9;1;;;;;;;3.97;71.1875;944.2231;;;;
2021/04/24 00:53:55;;;;;;;3.8;1.6;;;;;;;4.04;70.92969;944.1871;;;;
2021/04/24 00:56:21;;;;;;;1.2;0.9;;;;;;;4.01;70.91309;944.1372;;;;
2021/04/24 00:58:46;;;;;;;1.3;0.7;;;;;;;3.94;71.14844;944.1086;;;;
2021/04/24 01:01:11;;;;;;;1.6;0.8;;;;;;;3.63;72.0957;944.063;;;;
2021/04/24 01:03:36;;;;;;;1.5;1;;;;;;;3.56;72.9502;944.0244;;;;
2021/04/24 01:06:02;;;;;;;2.8;1;;;;;;;3.6;73.22656;943.9573;;;;
2021/04/24 01:08:26;;;;;;;1;0.9;;;;;;;3.64;73.03027;943.9494;;;;
2021/04/24 01:10:55;;;;;;;5.5;1.2;;;;;;;3.63;72.88281;943.9055;;;;
2021/04/24 01:13:25;;;;;;;0.9;0.6;;;;;;;3.7;72.82715;943.8472;;;;
2021/04/24 01:15:54;;;;;;;1.1;1;;;;;;;3.65;72.87598;943.8901;;;;
2021/04/24 01:18:27;;;;;;;2.6;1;;;;;;;3.76;72.46777;943.8539;;;;
2021/04/24 01:21:01;;;;;;;1.8;1.2;;;;;;;3.76;72.12988;943.8734;;;;
2021/04/24 01:23:30;;;;;;;1.2;0.9;;;;;;;3.77;71.7832;943.8575;;;;
2021/04/24 01:26:01;;;;;;;0.6;0.6;;;;;;;3.83;71.55762;943.8176;;;;
2021/04/24 01:28:31;;;;;;;1.4;0.8;;;;;;;3.81;71.59863;943.858;;;;
2021/04/24 01:30:57;;;;;;;0.7;0.7;;;;;;;3.84;71.64746;943.8228;;;;
2021/04/24 01:33:25;;;;;;;5.7;1.1;;;;;;;3.9;71.26465;943.782;;;;
2021/04/24 01:35:55;;;;;;;1.5;1.1;;;;;;;3.93;71.12305;943.6794;;;;
2021/04/24 01:38:25;;;;;;;1.6;0.9;;;;;;;3.83;71.52246;943.7364;;;;
2021/04/24 01:40:54;;;;;;;0.7;0.7;;;;;;;3.7;72.03125;943.7173;;;;
2021/04/24 01:43:29;;;;;;;1.3;0.8;;;;;;;3.64;72.26758;943.6708;;;;
2021/04/24 01:46:00;;;;;;;3;0.9;;;;;;;3.41;73.02539;943.6752;;;;
2021/04/24 01:48:29;;;;;;;1.1;0.8;;;;;;;3.23;74.08301;943.6746;;;;
2021/04/24 01:50:54;;;;;;;8.3;1.1;;;;;;;3.29;74.14844;943.6661;;;;
2021/04/24 01:53:21;;;;;;;0.8;0.7;;;;;;;3.34;73.9668;943.6573;;;;
2021/04/24 01:55:52;;;;;;;1.8;1.3;;;;;;;3.34;74.05859;943.6356;;;;
2021/04/24 01:58:22;;;;;;;1.3;0.9;;;;;;;3.28;74.27051;943.6728;;;;
2021/04/24 02:00:47;;;;;;;3.5;1.3;;;;;;;3.23;74.47559;943.6314;;;;
2021/04/24 02:03:13;;;;;;;1.5;0.9;;;;;;;3.35;74.17188;943.6652;;;;
2021/04/24 02:05:38;;;;;;;1.3;0.9;;;;;;;3.36;74.15137;943.6326;;;;
2021/04/24 02:08:06;;;;;;;1.2;1;;;;;;;3.49;73.57813;943.5472;;;;
2021/04/24 02:10:31;;;;;;;2.4;1.4;;;;;;;3.61;72.93555;943.5591;;;;
2021/04/24 02:12:56;;;;;;;1.7;1;;;;;;;3.71;72.43555;943.5492;;;;
2021/04/24 02:15:27;;;;;;;2.4;1.2;;;;;;;3.63;72.24219;943.5639;;;;
2021/04/24 02:17:55;;;;;;;1.3;0.9;;;;;;;3.5;72.98438;943.525;;;;
2021/04/24 02:20:30;;;;;;;1.4;0.9;;;;;;;3.41;73.33984;943.5862;;;;
2021/04/24 02:22:58;;;;;;;3.7;1.4;;;;;;;3.33;73.71875;943.5027;;;;
2021/04/24 02:25:33;;;;;;;3.9;1.2;;;;;;;3.29;73.98047;943.5842;;;;
2021/04/24 02:28:00;;;;;;;1.9;1.3;;;;;;;3.26;74.25586;943.5664;;;;
2021/04/24 02:30:34;;;;;;;0.7;0.7;;;;;;;3.33;73.85352;943.5545;;;;
2021/04/24 02:33:01;;;;;;;2.5;1.1;;;;;;;3.44;73.33496;943.3734;;;;
2021/04/24 02:35:34;;;;;;;7.3;1.4;;;;;;;3.34;73.6875;943.5386;;;;
2021/04/24 02:38:01;;;;;;;1.5;1.1;;;;;;;3.43;73.38867;943.5958;;;;
2021/04/24 02:40:26;;;;;;;1.8;1.2;;;;;;;3.32;73.76367;943.4434;;;;
2021/04/24 02:42:54;;;;;;;1.7;1;;;;;;;3.18;74.4209;943.5697;;;;
2021/04/24 02:45:20;;;;;;;0.8;0.8;;;;;;;3;75.36523;943.4619;;;;
2021/04/24 02:47:47;;;;;;;4.5;1.3;;;;;;;3.02;75.39258;943.48;;;;
2021/04/24 02:50:12;;;;;;;1.5;1.4;;;;;;;2.99;75.47754;943.5198;;;;
2021/04/24 02:52:37;;;;;;;1.7;1;;;;;;;3.05;75.62207;943.4821;;;;
2021/04/24 02:55:02;;;;;;;1.3;1.1;;;;;;;3.08;75.25879;943.4747;;;;
2021/04/24 02:57:28;;;;;;;1.7;1.3;;;;;;;3.05;75.43164;943.4277;;;;
2021/04/24 02:59:53;;;;;;;1.6;0.9;;;;;;;3.08;75.34668;943.4886;;;;
2021/04/24 03:02:20;;;;;;;1.1;1;;;;;;;3.1;75.27148;943.4864;;;;
2021/04/24 03:04:45;;;;;;;1.3;1;;;;;;;3.07;75.0752;943.485;;;;
2021/04/24 03:07:11;;;;;;;3.9;1;;;;;;;3.08;75.12207;943.5438;;;;
2021/04/24 03:09:37;;;;;;;3;1.5;;;;;;;3.06;75.01953;943.5092;;;;
2021/04/24 03:12:08;;;;;;;2.1;1.3;;;;;;;3.05;75.07227;943.4614;;;;
2021/04/24 03:14:38;;;;;;;1.9;1.2;;;;;;;2.97;75.32715;943.4747;;;;
2021/04/24 03:17:20;;;;;;;2.6;1;;;;;;;2.99;75.32129;943.4749;;;;
2021/04/24 03:19:57;;;;;;;1.5;0.8;;;;;;;2.91;75.37402;943.4525;;;;
2021/04/24 03:22:27;;;;;;;0.9;0.8;;;;;;;2.89;75.59473;943.4042;;;;
2021/04/24 03:24:52;;;;;;;1.8;0.9;;;;;;;2.95;75.16699;943.356;;;;
2021/04/24 03:27:17;;;;;;;1.3;1;;;;;;;2.96;75.12402;943.3792;;;;
2021/04/24 03:29:45;;;;;;;2;1.1;;;;;;;2.81;76.02734;943.2731;;;;
2021/04/24 03:32:12;;;;;;;1.3;1;;;;;;;2.76;76.38965;943.3995;;;;
2021/04/24 03:34:40;;;;;;;8.5;1.1;;;;;;;2.72;76.74121;943.408;;;;
2021/04/24 03:37:10;;;;;;;0.6;0.6;;;;;;;2.62;77.05957;943.4394;;;;
2021/04/24 03:39:36;;;;;;;2.9;1.5;;;;;;;2.67;76.81055;943.3984;;;;
2021/04/24 03:42:06;;;;;;;1.5;1;;;;;;;2.64;76.72656;943.3108;;;;
2021/04/24 03:44:39;;;;;;;0.5;0.5;;;;;;;2.71;76.12305;943.439;;;;
2021/04/24 03:47:05;;;;;;;1.7;1.1;;;;;;;2.79;75.64258;943.368;;;;
2021/04/24 03:49:30;;;;;;;1.6;1;;;;;;;2.83;75.52734;943.2686;;;;
2021/04/24 03:51:59;;;;;;;1.3;0.9;;;;;;;2.85;75.10449;943.3003;;;;
2021/04/24 03:54:30;;;;;;;1.1;0.8;;;;;;;2.86;74.51172;943.3298;;;;
2021/04/24 03:56:55;;;;;;;0.8;0.7;;;;;;;3.08;71.78027;943.3881;;;;
2021/04/24 03:59:20;;;;;;;1.8;1;;;;;;;3.38;69.76367;943.3798;;;;
2021/04/24 04:02:30;;;;;;;1;0.9;;;;;;;3.53;70.42773;943.2906;;;;
2021/04/24 04:04:55;;;;;;;1.4;1.1;;;;;;;3.56;70.70215;943.3777;;;;
2021/04/24 04:07:20;;;;;;;1.7;1.3;;;;;;;3.17;73.1416;943.4207;;;;
2021/04/24 04:09:47;;;;;;;2.7;1.3;;;;;;;3.01;74.27148;943.4749;;;;
2021/04/24 04:12:12;;;;;;;1.7;1.1;;;;;;;2.96;74.7666;943.4445;;;;
2021/04/24 04:14:41;;;;;;;4.9;1.4;;;;;;;3;74.71484;943.4077;;;;
2021/04/24 04:17:18;;;;;;;8.9;1.3;;;;;;;2.97;74.62012;943.4127;;;;
2021/04/24 04:19:48;;;;;;;2.3;1.4;;;;;;;2.79;75.12695;943.4365;;;;
2021/04/24 04:22:13;;;;;;;2.5;1.7;;;;;;;2.74;75.23145;943.4514;;;;
2021/04/24 04:24:38;;;;;;;1.8;0.9;;;;;;;2.63;75.72754;943.3386;;;;
2021/04/24 04:27:07;;;;;;;5.6;0.8;;;;;;;2.62;75.9834;943.4026;;;;
2021/04/24 04:29:32;;;;;;;0.6;0.6;;;;;;;2.49;76.44141;943.4793;;;;
2021/04/24 04:32:01;;;;;;;1.6;1;;;;;;;2.52;76.49316;943.4927;;;;
2021/04/24 04:34:29;;;;;;;1.3;1.1;;;;;;;2.62;75.9834;943.4717;;;;
2021/04/24 04:36:54;;;;;;;1.9;1;;;;;;;2.66;75.99023;943.4097;;;;
2021/04/24 04:39:22;;;;;;;2.8;1.5;;;;;;;2.62;76.25098;943.4825;;;;
2021/04/24 04:41:47;;;;;;;1.9;1.2;;;;;;;2.57;76.81641;943.4967;;;;
2021/04/24 04:44:12;;;;;;;2.6;1.4;;;;;;;2.65;76.7168;943.5217;;;;
2021/04/24 04:46:38;;;;;;;3.7;1.6;;;;;;;2.68;76.63281;943.4766;;;;
2021/04/24 04:49:05;;;;;;;2;1.4;;;;;;;2.68;76.61133;943.4847;;;;
2021/04/24 04:51:30;;;;;;;2.9;1.3;;;;;;;2.64;76.79395;943.4906;;;;
2021/04/24 04:53:55;;;;;;;2.3;1.2;;;;;;;2.56;77.05957;943.5092;;;;
2021/04/24 04:56:21;;;;;;;2;1.2;;;;;;;2.55;77.17188;943.491;;;;
2021/04/24 04:58:47;;;;;;;6.3;2;;;;;;;2.6;77.09961;943.4539;;;;
2021/04/24 05:01:12;;;;;;;2.9;1.9;;;;;;;2.54;77.33496;943.5664;;;;
2021/04/24 05:03:40;;;;;;;4.2;2;;;;;;;2.6;77.24512;943.519;;;;
2021/04/24 05:06:05;;;;;;;2;1.7;;;;;;;2.62;77.16992;943.4621;;;;
2021/04/24 05:08:35;;;;;;;3.4;1.2;;;;;;;2.61;76.97852;943.5739;;;;
2021/04/24 05:10:57;;;;;;;2.4;1.8;;;;;;;2.66;76.9541;943.5759;;;;
2021/04/24 05:13:24;;;;;;;4.5;2.6;;;;;;;2.77;76.64844;943.5541;;;;
2021/04/24 05:16:11;;;;;;;4.4;2.6;;;;;;;2.77;76.68262;943.6541;;;;
2021/04/24 05:18:41;;;;;;;3.5;2;;;;;;;2.9;76.29004;943.5887;;;;
2021/04/24 05:21:14;;;;;;;5.2;2.8;;;;;;;2.97;75.93262;943.5281;;;;
2021/04/24 05:23:43;;;;;;;7.8;4.2;;;;;;;3.03;75.58496;943.5363;;;;
2021/04/24 05:26:13;;;;;;;5.4;3.9;;;;;;;3.1;75.33887;943.5361;;;;
2021/04/24 05:28:38;;;;;;;9.9;5;;;;;;;3.23;75.17188;943.577;;;;
2021/04/24 05:31:08;;;;;;;6.4;4.4;;;;;;;4.41;72.80273;943.5184;;;;
2021/04/24 05:33:37;;;;;;;7.5;2.5;;;;;;;6.33;65.80371;943.5003;;;;
2021/04/24 05:36:07;;;;;;;2;1.6;;;;;;;7.85;59.77539;943.5137;;;;
2021/04/24 05:38:28;;;;;;;2.8;1.8;;;;;;;8.94;55.5;943.5048;;;;
2021/04/24 05:40:56;;;;;;;1.2;1.1;;;;;;;8.63;55.89355;943.5097;;;;
2021/04/24 05:43:21;;;;;;;5.1;1.5;;;;;;;9.5;52.39453;943.4683;;;;
2021/04/24 05:45:48;;;;;;;1.3;0.9;;;;;;;9.83;51.25;943.5435;;;;
2021/04/24 05:48:14;;;;;;;1.8;1;;;;;;;10.63;49.62012;943.455;;;;
2021/04/24 05:50:40;;;;;;;1.1;1;;;;;;;12.44;44.3916;943.4225;;;;
2021/04/24 05:53:05;;;;;;;1.2;0.7;;;;;;;13.21;42.85156;943.4853;;;;
2021/04/24 05:55:31;;;;;;;0.7;0.5;;;;;;;14.04;40.57227;943.405;;;;
2021/04/24 05:57:56;;;;;;;0.5;0.5;;;;;;;14.19;40.90918;943.3943;;;;
2021/04/24 06:00:25;;;;;;;2.1;0.8;;;;;;;14.39;40.77832;943.3345;;;;
2021/04/24 06:02:53;;;;;;;2.4;0.8;;;;;;;15.24;37.76465;943.343;;;;
2021/04/24 06:05:18;;;;;;;0.6;0.5;;;;;;;15.29;36.99512;943.2643;;;;
2021/04/24 06:07:46;;;;;;;0.8;0.6;;;;;;;15.71;36.5918;943.2942;;;;
2021/04/24 06:10:11;;;;;;;0.6;0.5;;;;;;;15.97;35.75781;943.3108;;;;
2021/04/24 06:12:36;;;;;;;1.1;0.7;;;;;;;15.83;36.10449;943.3384;;;;
2021/04/24 06:15:06;;;;;;;0.4;0.4;;;;;;;14.64;36.7207;943.3592;;;;
2021/04/24 06:17:36;;;;;;;0.3;0.3;;;;;;;15.08;37.09375;943.3219;;;;
2021/04/24 06:20:05;;;;;;;1.1;0.6;;;;;;;14.84;35.87402;943.2411;;;;
2021/04/24 06:22:30;;;;;;;5.3;0.7;;;;;;;16.41;32.6123;943.3546;;;;
2021/04/24 06:25:00;;;;;;;0.3;0.3;;;;;;;15.65;33.46777;943.296;;;;
2021/04/24 06:27:30;;;;;;;0.9;0.6;;;;;;;15.95;33.54883;943.314;;;;
2021/04/24 06:29:55;;;;;;;0.7;0.5;;;;;;;15.78;33.39648;943.3053;;;;
2021/04/24 06:32:26;;;;;;;1.1;0.9;;;;;;;15.9;32.6084;943.2813;;;;
2021/04/24 06:34:56;;;;;;;0.4;0.4;;;;;;;16.66;31.66992;943.3396;;;;
2021/04/24 06:37:27;;;;;;;2.1;0.9;;;;;;;17;31.69336;943.3433;;;;
2021/04/24 06:39:57;;;;;;;0.8;0.6;;;;;;;18.58;29.50488;943.3147;;;;
2021/04/24 06:42:22;;;;;;;2;0.4;;;;;;;19.65;28.17773;943.2084;;;;
2021/04/24 06:44:49;;;;;;;1.5;0.5;;;;;;;21.25;26.91113;943.2965;;;;
2021/04/24 06:47:19;;;;;;;0.5;0.3;;;;;;;22.27;26.16406;943.3085;;;;
2021/04/24 06:49:44;;;;;;;0.8;0.4;;;;;;;23.22;23.88086;943.2178;;;;
2021/04/24 06:52:13;;;;;;;1.6;0.6;;;;;;;23.08;23.42676;943.2163;;;;
2021/04/24 06:54:38;;;;;;;1.9;0.4;;;;;;;23.39;22.66699;943.1808;;;;
2021/04/24 06:57:04;;;;;;;1.8;0.9;;;;;;;22.18;25.2666;943.125;;;;
2021/04/24 06:59:30;;;;;;;7.5;0.9;;;;;;;22.47;25.01367;943.1311;;;;
2021/04/24 07:01:59;;;;;;;0.5;0.4;;;;;;;23.9;23.03418;943.105;;;;
2021/04/24 07:04:24;;;;;;;1.3;0.5;;;;;;;24.61;21.50293;943.0708;;;;
2021/04/24 07:06:50;;;;;;;0.5;0.2;;;;;;;25.12;21.5166;943.0705;;;;
2021/04/24 07:09:15;;;;;;;0.2;0.2;;;;;;;25.45;21.56738;943.0383;;;;
2021/04/24 07:11:41;;;;;;;0.5;0.5;;;;;;;25.63;21.58789;942.9824;;;;
2021/04/24 07:14:06;;;;;;;0.1;0.1;;;;;;;25.32;22.63574;942.9594;;;;
2021/04/24 07:16:37;;;;;;;0.2;0.2;;;;;;;26.07;20.2959;942.9031;;;;
2021/04/24 07:19:02;;;;;;;0.3;0.3;;;;;;;25.11;21.25488;942.9553;;;;
2021/04/24 07:21:27;;;;;;;0.2;0.2;;;;;;;24.96;21.04785;942.9109;;;;
2021/04/24 07:23:52;;;;;;;1;0.6;;;;;;;25.31;20.50977;942.9238;;;;
2021/04/24 07:26:21;;;;;;;0.8;0.2;;;;;;;26.6;19.18359;942.8677;;;;
2021/04/24 07:28:45;;;;;;;0.2;0.2;;;;;;;27.46;18.16406;942.8594;;;;
2021/04/24 07:31:14;;;;;;;2.8;0.5;;;;;;;27.23;17.75098;942.8567;;;;
2021/04/24 07:33:37;;;;;;;0.3;0.2;;;;;;;27.17;19.88379;942.8594;;;;
2021/04/24 07:36:03;;;;;;;0.4;0.3;;;;;;;27.76;18.44922;942.7714;;;;
2021/04/24 07:38:28;;;;;;;0.9;0.7;;;;;;;28.25;17.00781;942.7701;;;;
2021/04/24 07:40:55;;;;;;;0.5;0.4;;;;;;;27.76;18.9834;942.6769;;;;
2021/04/24 07:43:20;;;;;;;0.7;0.4;;;;;;;28.2;17.62402;942.6961;;;;
2021/04/24 07:45:46;;;;;;;2.3;0.4;;;;;;;28.9;16.90137;942.6813;;;;
2021/04/24 07:48:11;;;;;;;0.5;0.3;;;;;;;29.18;16.16113;942.6985;;;;
2021/04/24 07:50:37;;;;;;;0.5;0.3;;;;;;;28.96;17.2959;942.5795;;;;
2021/04/24 07:53:02;;;;;;;0.2;0.2;;;;;;;29.3;17.46484;942.6296;;;;
2021/04/24 07:55:29;;;;;;;1.1;0.2;;;;;;;30.09;16.21777;942.5836;;;;
2021/04/24 07:57:54;;;;;;;1.2;0.5;;;;;;;29.97;15.91504;942.6273;;;;
2021/04/24 08:00:19;;;;;;;0.5;0.3;;;;;;;30.13;15.16895;942.5712;;;;
2021/04/24 08:02:44;;;;;;;0.6;0.1;;;;;;;30.28;15.71094;942.6038;;;;
2021/04/24 08:05:12;;;;;;;0.3;0.3;;;;;;;29.78;16.01563;942.55;;;;
2021/04/24 08:07:37;;;;;;;1.6;0.4;;;;;;;29.95;16.17676;942.575;;;;
2021/04/24 08:10:03;;;;;;;1.5;0.7;;;;;;;29.94;16.04492;942.5352;;;;
2021/04/24 08:12:28;;;;;;;0.5;0.4;;;;;;;30.66;15.62891;942.4763;;;;
2021/04/24 08:14:54;;;;;;;1.3;0.3;;;;;;;32;13.07422;942.4127;;;;
2021/04/24 08:17:23;;;;;;;0.3;0.2;;;;;;;32.58;13.24707;942.3931;;;;
2021/04/24 08:19:51;;;;;;;0.9;0.6;;;;;;;30.82;15.14453;942.4118;;;;
2021/04/24 08:22:16;;;;;;;0.8;0.6;;;;;;;29.89;16.23438;942.4098;;;;
2021/04/24 08:24:43;;;;;;;1.4;0.6;;;;;;;31.04;14.84082;942.3123;;;;
2021/04/24 08:27:08;;;;;;;0.3;0.3;;;;;;;31.4;14.41016;942.3297;;;;
2021/04/24 08:29:35;;;;;;;1.5;0.4;;;;;;;32.04;14.75391;942.2428;;;;
2021/04/24 08:32:02;;;;;;;1.4;0.5;;;;;;;33.02;13.10449;942.2608;;;;
2021/04/24 08:34:26;;;;;;;1.4;0.5;;;;;;;32.93;14.66211;942.2371;;;;
2021/04/24 08:36:51;;;;;;;0.6;0.4;;;;;;;33.05;12.66016;942.2768;;;;
2021/04/24 08:39:16;;;;;;;1.6;0.4;;;;;;;33.32;13.20898;942.2399;;;;
2021/04/24 08:41:46;;;;;;;0.7;0.3;;;;;;;33.92;12.73242;942.2706;;;;
2021/04/24 08:44:13;;;;;;;0.4;0.3;;;;;;;33.45;13.30859;942.2352;;;;
2021/04/24 08:46:38;;;;;;;0.2;0.2;;;;;;;32.94;13.59375;942.2089;;;;
2021/04/24 08:49:05;;;;;;;1.9;0.4;;;;;;;31.11;15.10645;942.1544;;;;
2021/04/24 08:51:30;;;;;;;0.5;0.4;;;;;;;31.65;14.76465;942.1362;;;;
2021/04/24 08:53:58;;;;;;;2.3;0.5;;;;;;;31.4;14.39746;942.0847;;;;
2021/04/24 08:56:24;;;;;;;0.2;0.2;;;;;;;31.16;14.60547;942.0764;;;;
2021/04/24 08:58:48;;;;;;;1.1;0.3;;;;;;;30.34;15.46289;942.0497;;;;
2021/04/24 09:01:13;;;;;;;0.3;0.3;;;;;;;29.13;16.55273;941.9953;;;;
2021/04/24 09:03:40;;;;;;;0.8;0.4;;;;;;;28.56;17.00684;942.0183;;;;
2021/04/24 09:06:05;;;;;;;0.6;0.4;;;;;;;28.76;16.70605;942.0206;;;;
2021/04/24 09:08:31;;;;;;;1.5;0.5;;;;;;;28.5;17.84961;942.0508;;;;
2021/04/24 09:10:56;;;;;;;0.5;0.4;;;;;;;29.52;16.14941;941.9802;;;;
2021/04/24 09:13:22;;;;;;;0.2;0.2;;;;;;;29.93;16.46191;942.0444;;;;
2021/04/24 09:15:57;;;;;;;0.3;0.2;;;;;;;30.46;15.37109;941.9474;;;;
2021/04/24 09:18:23;;;;;;;0.3;0.3;;;;;;;29.7;16.06055;941.8981;;;;
2021/04/24 09:20:49;;;;;;;0.8;0.5;;;;;;;29.76;17.20801;941.8133;;;;
2021/04/24 09:23:13;;;;;;;0.4;0.4;;;;;;;28.78;17.37207;941.8826;;;;
2021/04/24 09:25:39;;;;;;;0.4;0.4;;;;;;;28.79;17.5752;941.8247;;;;
2021/04/24 09:28:04;;;;;;;0.5;0.5;;;;;;;27.93;19.2998;941.7455;;;;
2021/04/24 09:30:30;;;;;;;0.3;0.3;;;;;;;27.95;18.62305;941.6895;;;;
2021/04/24 09:32:57;;;;;;;2;0.5;;;;;;;26.63;18.88867;941.6892;;;;
2021/04/24 09:35:22;;;;;;;1.5;0.7;;;;;;;25.36;20.86621;941.6972;;;;
2021/04/24 09:37:47;;;;;;;0.8;0.5;;;;;;;24.6;21.4082;941.7008;;;;
2021/04/24 09:40:15;;;;;;;0.4;0.4;;;;;;;24.05;24.03223;941.658;;;;
2021/04/24 09:42:40;;;;;;;0.4;0.3;;;;;;;23.51;24.47266;941.5992;;;;
2021/04/24 09:45:08;;;;;;;0.6;0.6;;;;;;;23.64;23.5498;941.6603;;;;
2021/04/24 09:47:31;;;;;;;1.8;1.2;;;;;;;23.32;25.87305;941.5789;;;;
2021/04/24 09:50:00;;;;;;;1.2;0.7;;;;;;;22.96;26.39258;941.5327;;;;
2021/04/24 09:52:25;;;;;;;0.5;0.4;;;;;;;23.48;25.29395;941.519;;;;
2021/04/24 09:54:50;;;;;;;0.5;0.5;;;;;;;23.62;24.9375;941.5037;;;;
2021/04/24 09:57:20;;;;;;;0.6;0.6;;;;;;;23.77;24.2041;941.5172;;;;
2021/04/24 09:59:41;;;;;;;0.8;0.5;;;;;;;23.53;25.29688;941.4636;;;;
2021/04/24 10:02:07;;;;;;;2.3;0.8;;;;;;;23.88;24.05762;941.4649;;;;
2021/04/24 10:04:32;;;;;;;0.4;0.4;;;;;;;24.49;25.87012;941.3221;;;;
2021/04/24 10:06:57;;;;;;;0.6;0.6;;;;;;;24.79;24.81445;941.4228;;;;
2021/04/24 10:09:26;;;;;;;1.4;0.8;;;;;;;25.15;22.11914;941.366;;;;
2021/04/24 10:11:51;;;;;;;2.5;0.9;;;;;;;25.12;22.4248;941.3369;;;;
2021/04/24 10:14:16;;;;;;;1.5;0.6;;;;;;;25.4;22.0498;941.2974;;;;
2021/04/24 10:16:49;;;;;;;0.5;0.4;;;;;;;25.07;23.95605;941.3367;;;;
2021/04/24 10:19:15;;;;;;;0.8;0.5;;;;;;;25.54;22.20898;941.2413;;;;
2021/04/24 10:21:40;;;;;;;0.6;0.4;;;;;;;25.68;23.11523;941.1711;;;;
2021/04/24 10:24:05;;;;;;;0.9;0.4;;;;;;;25.89;22.27441;941.2026;;;;
2021/04/24 10:26:30;;;;;;;3.2;0.7;;;;;;;25.65;22.6875;941.1989;;;;
2021/04/24 10:28:55;;;;;;;2;0.5;;;;;;;25.55;23.04883;941.0899;;;;
2021/04/24 10:31:20;;;;;;;1.1;0.7;;;;;;;25.75;22.83496;941.101;;;;
2021/04/24 10:33:45;;;;;;;0.4;0.3;;;;;;;26.41;21.58887;941.0402;;;;
2021/04/24 10:36:11;;;;;;;0.6;0.6;;;;;;;27.01;20.75391;941.0027;;;;
2021/04/24 10:38:36;;;;;;;4.6;0.6;;;;;;;26.63;20.90234;941.0363;;;;
2021/04/24 10:41:02;;;;;;;2.7;0.6;;;;;;;25.96;22.37207;940.9361;;;;
2021/04/24 10:43:27;;;;;;;2.7;0.6;;;;;;;25.1;22.75391;940.9088;;;;
2021/04/24 10:45:52;;;;;;;0.3;0.3;;;;;;;25.06;24.03809;940.9369;;;;
2021/04/24 10:48:18;;;;;;;1.2;0.8;;;;;;;24.76;24.03418;940.9436;;;;
2021/04/24 10:50:44;;;;;;;1;0.7;;;;;;;24.81;24.21387;940.9188;;;;
2021/04/24 10:53:11;;;;;;;1.4;0.7;;;;;;;24.48;25.0332;940.9587;;;;
2021/04/24 10:55:36;;;;;;;1.6;0.9;;;;;;;24.44;25.21875;940.9424;;;;
2021/04/24 10:58:03;;;;;;;0.7;0.5;;;;;;;24.53;25.18848;940.8859;;;;
2021/04/24 11:00:28;;;;;;;2.8;1.6;;;;;;;24.59;24.63867;940.7711;;;;
2021/04/24 11:02:53;;;;;;;0.6;0.6;;;;;;;23.94;26.26172;940.8665;;;;
2021/04/24 11:05:20;;;;;;;0.6;0.3;;;;;;;23.84;25.84473;940.8376;;;;
2021/04/24 11:07:45;;;;;;;0.3;0.3;;;;;;;24.27;25.43262;940.8605;;;;
2021/04/24 11:10:12;;;;;;;0.5;0.4;;;;;;;24.49;25.19824;940.838;;;;
2021/04/24 11:12:37;;;;;;;5.6;0.9;;;;;;;24.54;25.0127;940.8717;;;;
2021/04/24 11:15:02;;;;;;;0.4;0.4;;;;;;;23.97;25.74609;940.8569;;;;
2021/04/24 11:17:27;;;;;;;0.5;0.4;;;;;;;23.57;26.46289;940.7253;;;;
2021/04/24 11:19:52;;;;;;;1;0.8;;;;;;;24.11;25.04688;940.7202;;;;
2021/04/24 11:22:17;;;;;;;1.2;0.5;;;;;;;23.47;26.5166;940.736;;;;
2021/04/24 11:24:42;;;;;;;1.2;0.7;;;;;;;23.73;25.9082;940.8278;;;;
2021/04/24 11:27:09;;;;;;;3.3;0.9;;;;;;;23.71;28.03711;940.7838;;;;
2021/04/24 11:29:34;;;;;;;0.5;0.5;;;;;;;23.51;26.55469;940.6147;;;;
2021/04/24 11:31:59;;;;;;;1.5;0.9;;;;;;;23.24;26.35059;940.6569;;;;
2021/04/24 11:34:24;;;;;;;0.8;0.5;;;;;;;23.17;27.03906;940.6428;;;;
2021/04/24 11:36:49;;;;;;;2.3;0.8;;;;;;;23.33;26.24902;940.548;;;;
2021/04/24 11:39:14;;;;;;;2.2;0.9;;;;;;;23.01;27.34668;940.6147;;;;
2021/04/24 11:41:41;;;;;;;0.9;0.3;;;;;;;22.79;27.48535;940.6403;;;;
2021/04/24 11:44:06;;;;;;;0.6;0.5;;;;;;;22.73;28.32715;940.6783;;;;
2021/04/24 11:46:33;;;;;;;2.8;0.9;;;;;;;22.59;28.37695;940.6348;;;;
2021/04/24 11:48:58;;;;;;;1.2;0.9;;;;;;;22.82;27.20508;940.6869;;;;
2021/04/24 11:51:25;;;;;;;1.6;0.6;;;;;;;22.93;27.13086;940.5956;;;;
2021/04/24 11:53:49;;;;;;;0.6;0.5;;;;;;;22.55;27.7998;940.6483;;;;
2021/04/24 11:56:16;;;;;;;0.9;0.6;;;;;;;22.35;29.13574;940.613;;;;
2021/04/24 11:58:41;;;;;;;4.4;0.8;;;;;;;22.51;28.40723;940.6292;;;;
2021/04/24 12:01:07;;;;;;;2.4;0.8;;;;;;;22.77;27.8252;940.616;;;;
2021/04/24 12:03:32;;;;;;;1.3;0.8;;;;;;;22.59;28.74121;940.5518;;;;
2021/04/24 12:05:59;;;;;;;0.9;0.6;;;;;;;22.69;29.06445;940.5684;;;;
2021/04/24 12:08:24;;;;;;;3.1;0.7;;;;;;;22.34;28.44336;940.5314;;;;
2021/04/24 12:10:55;;;;;;;0.8;0.4;;;;;;;22.39;29.61914;940.5753;;;;
2021/04/24 12:13:15;;;;;;;1.1;0.5;;;;;;;22.11;28.79102;940.6035;;;;
2021/04/24 12:15:47;;;;;;;1.4;0.7;;;;;;;22.34;32.40723;940.4698;;;;
2021/04/24 12:18:13;;;;;;;1.5;0.6;;;;;;;22.26;28.22754;940.4138;;;;
2021/04/24 12:20:39;;;;;;;1.1;0.5;;;;;;;22.25;29.61035;940.5228;;;;
2021/04/24 12:23:04;;;;;;;1.5;0.7;;;;;;;22.82;28.06348;940.4846;;;;
2021/04/24 12:25:30;;;;;;;0.3;0.3;;;;;;;22.94;27.38965;940.4734;;;;
2021/04/24 12:27:55;;;;;;;0.6;0.5;;;;;;;23.03;28.2168;940.478;;;;
2021/04/24 12:30:21;;;;;;;1.9;0.8;;;;;;;22.75;28.10645;940.4297;;;;
2021/04/24 12:32:46;;;;;;;0.5;0.5;;;;;;;22.26;30.6543;940.3725;;;;
2021/04/24 12:35:12;;;;;;;1.9;0.8;;;;;;;21.77;31.87402;940.4305;;;;
2021/04/24 12:37:37;;;;;;;0.9;0.6;;;;;;;21.67;29.85254;940.3314;;;;
2021/04/24 12:40:06;;;;;;;1.2;0.7;;;;;;;21.61;28.41992;940.4034;;;;
2021/04/24 12:42:31;;;;;;;1;0.6;;;;;;;21.55;28.89648;940.3912;;;;
2021/04/24 12:44:56;;;;;;;0.3;0.3;;;;;;;21.7;28.32031;940.3904;;;;
2021/04/24 12:47:21;;;;;;;1.3;0.8;;;;;;;21.67;29.71289;940.4196;;;;
2021/04/24 12:49:47;;;;;;;0.9;0.6;;;;;;;21.52;30.91895;940.3834;;;;
2021/04/24 12:52:11;;;;;;;1.5;0.9;;;;;;;21.37;31.16602;940.2717;;;;
2021/04/24 12:54:37;;;;;;;0.6;0.6;;;;;;;21.2;30.89746;940.2872;;;;
2021/04/24 12:57:02;;;;;;;0.7;0.6;;;;;;;21.2;29.1543;940.2386;;;;
2021/04/24 12:59:27;;;;;;;1;0.6;;;;;;;20.96;29.89844;940.215;;;;
2021/04/24 13:01:52;;;;;;;3.3;0.9;;;;;;;21.06;32.7002;940.2329;;;;
2021/04/24 13:04:17;;;;;;;1.7;0.8;;;;;;;21.28;29.31152;940.1406;;;;
2021/04/24 13:06:44;;;;;;;2;1.1;;;;;;;21.34;30.61426;940.0731;;;;
2021/04/24 13:09:10;;;;;;;2.6;0.8;;;;;;;21.16;30.83594;940.09;;;;
2021/04/24 13:11:39;;;;;;;1.3;0.7;;;;;;;20.95;30.92676;940.033;;;;
2021/04/24 13:14:04;;;;;;;0.8;0.7;;;;;;;21.17;30.67188;940.0832;;;;
2021/04/24 13:16:43;;;;;;;1;0.7;;;;;;;21.39;30.95703;939.9972;;;;
2021/04/24 13:19:08;;;;;;;1.2;0.8;;;;;;;21.34;32.46289;939.9225;;;;
2021/04/24 13:21:37;;;;;;;1.1;0.6;;;;;;;21.01;30.71973;939.9846;;;;
2021/04/24 13:24:02;;;;;;;1.7;1.1;;;;;;;21.03;29.80957;940.0335;;;;
2021/04/24 13:26:27;;;;;;;0.3;0.3;;;;;;;21.13;31.94434;939.9433;;;;
2021/04/24 13:28:55;;;;;;;1.7;0.6;;;;;;;21.09;30.21094;939.9235;;;;
2021/04/24 13:31:20;;;;;;;3.1;0.9;;;;;;;20.9;32.43164;939.8604;;;;
2021/04/24 13:33:45;;;;;;;1.1;0.7;;;;;;;20.73;32.75781;939.91;;;;
2021/04/24 13:36:12;;;;;;;2.9;0.8;;;;;;;20.96;31.5;939.8077;;;;
2021/04/24 13:38:38;;;;;;;1.5;1;;;;;;;20.74;32.67676;939.7536;;;;
2021/04/24 13:41:05;;;;;;;2;0.8;;;;;;;20.72;31.86914;939.7662;;;;
2021/04/24 13:43:30;;;;;;;0.9;0.8;;;;;;;20.7;30.75684;939.7839;;;;
2021/04/24 13:45:55;;;;;;;0.6;0.5;;;;;;;20.55;32.00781;939.7659;;;;
2021/04/24 13:48:22;;;;;;;0.9;0.7;;;;;;;20.33;32.55273;939.7386;;;;
2021/04/24 13:50:48;;;;;;;0.3;0.3;;;;;;;20.2;33.17383;939.7101;;;;
2021/04/24 13:53:13;;;;;;;1.3;0.8;;;;;;;20.16;32.64551;939.7386;;;;
2021/04/24 13:55:39;;;;;;;1.3;0.9;;;;;;;20.38;32.64941;939.6355;;;;
2021/04/24 13:58:04;;;;;;;1.6;0.9;;;;;;;20.44;30.37695;939.6489;;;;
2021/04/24 14:00:30;;;;;;;1.5;1.1;;;;;;;20.37;30.25488;939.5742;;;;
2021/04/24 14:02:55;;;;;;;0.5;0.5;;;;;;;20.43;30.46875;939.5887;;;;
2021/04/24 14:05:20;;;;;;;0.9;0.7;;;;;;;20.55;30.7002;939.4989;;;;
2021/04/24 14:07:46;;;;;;;1.1;0.7;;;;;;;20.21;32.60254;939.5212;;;;
2021/04/24 14:10:11;;;;;;;0.8;0.6;;;;;;;20.27;32.4082;939.5145;;;;
2021/04/24 14:12:36;;;;;;;1.6;0.8;;;;;;;20.22;31.75098;939.4501;;;;
2021/04/24 14:15:01;;;;;;;0.7;0.6;;;;;;;20.21;30.2334;939.5553;;;;
2021/04/24 14:17:27;;;;;;;1.7;1;;;;;;;19.99;32.20215;939.4029;;;;
2021/04/24 14:19:56;;;;;;;2.3;0.8;;;;;;;19.6;34.22461;939.5612;;;;
2021/04/24 14:22:21;;;;;;;2.4;0.8;;;;;;;19.52;32.98242;939.5694;;;;
2021/04/24 14:24:47;;;;;;;0.8;0.6;;;;;;;19.55;33.2998;939.4736;;;;
2021/04/24 14:27:13;;;;;;;4.9;1.1;;;;;;;19.39;33.21875;939.4709;;;;
2021/04/24 14:29:39;;;;;;;3;1;;;;;;;19.35;34.29785;939.5115;;;;